Home > Products > Valid Products > TAF

000
FTPA31 PHFO 030900 AAA
TAFHNL
TAF AMD
PHNL 030907Z 0309/0412 VRB05KT P6SM VCSH SCT025 SCT045
      TEMPO 0310/0314 5SM SHRA BR BKN025
     FM032000 16010KT P6SM VCSH SCT025 BKN040
     FM040500 VRB05KT P6SM FEW025 SCT045=



000
FTPA31 PHFO 030900 AAA
TAFHNL
TAF AMD
PHNL 030907Z 0309/0412 VRB05KT P6SM VCSH SCT025 SCT045
      TEMPO 0310/0314 5SM SHRA BR BKN025
     FM032000 16010KT P6SM VCSH SCT025 BKN040
     FM040500 VRB05KT P6SM FEW025 SCT045=



000
FTPA31 PHFO 030500
TAFHNL
TAF
PHNL 030540Z 0306/0412 15005KT P6SM VCSH FEW025 SCT045
      TEMPO 0310/0314 5SM SHRA BR BKN025
     FM032000 16010KT P6SM VCSH SCT025 BKN040
     FM040500 VRB05KT P6SM FEW025 SCT045=



000
FTPA31 PHFO 030500
TAFHNL
TAF
PHNL 030540Z 0306/0412 15005KT P6SM VCSH FEW025 SCT045
      TEMPO 0310/0314 5SM SHRA BR BKN025
     FM032000 16010KT P6SM VCSH SCT025 BKN040
     FM040500 VRB05KT P6SM FEW025 SCT045=



000
FTPA31 PHFO 030200 AAA
TAFHNL
TAF AMD
PHNL 030254Z 0303/0406 17010KT P6SM VCSH FEW015 SCT030 BKN045
     FM030800 VRB05KT P6SM VCSH FEW025 SCT045
     FM032000 17010KT P6SM VCSH SCT025 BKN040
     FM040500 VRB05KT P6SM SCT025 BKN045=



000
FTPA31 PHFO 030200 AAA
TAFHNL
TAF AMD
PHNL 030254Z 0303/0406 17010KT P6SM VCSH FEW015 SCT030 BKN045
     FM030800 VRB05KT P6SM VCSH FEW025 SCT045
     FM032000 17010KT P6SM VCSH SCT025 BKN040
     FM040500 VRB05KT P6SM SCT025 BKN045=



000
FTPA31 PHFO 022300
TAFHNL
TAF
PHNL 022333Z 0300/0406 22011KT P6SM VCSH FEW015 SCT030 BKN045
     FM030800 VRB05KT P6SM VCSH FEW025 SCT045
     FM032000 17006KT P6SM VCSH SCT025 BKN040
     FM040500 VRB05KT P6SM SCT025 BKN045=



000
FTPA31 PHFO 022300
TAFHNL
TAF
PHNL 022333Z 0300/0406 22011KT P6SM VCSH FEW015 SCT030 BKN045
     FM030800 VRB05KT P6SM VCSH FEW025 SCT045
     FM032000 17006KT P6SM VCSH SCT025 BKN040
     FM040500 VRB05KT P6SM SCT025 BKN045=



000
FTPA31 PHFO 022300
TAFHNL
TAF
PHNL 022333Z 0300/0406 22011KT P6SM VCSH FEW015 SCT030 BKN045
     FM030800 VRB05KT P6SM VCSH FEW025 SCT045
     FM032000 17006KT P6SM VCSH SCT025 BKN040
     FM040500 VRB05KT P6SM SCT025 BKN045=



000
FTPA31 PHFO 022100 AAA
TAFHNL
TAF AMD
PHNL 022105Z 0221/0324 20010KT P6SM VCSH FEW025 BKN040
     FM030800 VRB05KT P6SM VCSH FEW025 SCT045
     FM032000 17006KT P6SM VCSH SCT025 BKN040=



000
FTPA31 PHFO 022100 AAA
TAFHNL
TAF AMD
PHNL 022105Z 0221/0324 20010KT P6SM VCSH FEW025 BKN040
     FM030800 VRB05KT P6SM VCSH FEW025 SCT045
     FM032000 17006KT P6SM VCSH SCT025 BKN040=



000
FTPA31 PHFO 021700 RRA
TAFHNL
TAF
PHNL 021741Z 0218/0324 10004KT P6SM VCSH FEW035 BKN040
     FM022000 20010KT P6SM VCSH FEW025 BKN040
     FM030800 VRB05KT P6SM VCSH FEW025 SCT045
     FM032000 17006KT P6SM VCSH SCT025 BKN040=



000
FTPA31 PHFO 021700 RRA
TAFHNL
TAF
PHNL 021741Z 0218/0324 10004KT P6SM VCSH FEW035 BKN040
     FM022000 20010KT P6SM VCSH FEW025 BKN040
     FM030800 VRB05KT P6SM VCSH FEW025 SCT045
     FM032000 17006KT P6SM VCSH SCT025 BKN040=



000
FTPA31 PHFO 021700 RRA
TAFHNL
TAF
PHNL 021741Z 0218/0324 10004KT P6SM VCSH FEW035 BKN040
     FM022000 20010KT P6SM VCSH FEW025 BKN040
     FM030800 VRB05KT P6SM VCSH FEW025 SCT045
     FM032000 17006KT P6SM VCSH SCT025 BKN040=



000
FTPA31 PHFO 021700 RRA
TAFHNL
TAF
PHNL 021741Z 0218/0324 10004KT P6SM VCSH FEW035 BKN040
     FM022000 20010KT P6SM VCSH FEW025 BKN040
     FM030800 VRB05KT P6SM VCSH FEW025 SCT045
     FM032000 17006KT P6SM VCSH SCT025 BKN040=



000
FTPA31 PHFO 021100
TAFHNL
TAF
PHNL 021131Z 0212/0318 34006KT P6SM FEW025
     FM022000 20009KT P6SM FEW025 SCT040
     FM030600 15006KT P6SM VCSH SCT025 BKN040=



000
FTPA31 PHFO 021100
TAFHNL
TAF
PHNL 021131Z 0212/0318 34006KT P6SM FEW025
     FM022000 20009KT P6SM FEW025 SCT040
     FM030600 15006KT P6SM VCSH SCT025 BKN040=



000
FTPA31 PHFO 021100
TAFHNL
TAF
PHNL 021131Z 0212/0318 34006KT P6SM FEW025
     FM022000 20009KT P6SM FEW025 SCT040
     FM030600 15006KT P6SM VCSH SCT025 BKN040=



000
FTPA31 PHFO 021100
TAFHNL
TAF
PHNL 021131Z 0212/0318 34006KT P6SM FEW025
     FM022000 20009KT P6SM FEW025 SCT040
     FM030600 15006KT P6SM VCSH SCT025 BKN040=



000
FTPA31 PHFO 020800 RRA
TAFHNL
TAF
PHNL 020835Z 0209/0312 VRB06KT P6SM VCSH FEW030 SCT050
     FM022000 20009KT P6SM VCSH SCT030 BKN050
     FM030500 14009KT P6SM VCSH SCT030 BKN050=



000
FTPA31 PHFO 020800 RRA
TAFHNL
TAF
PHNL 020835Z 0209/0312 VRB06KT P6SM VCSH FEW030 SCT050
     FM022000 20009KT P6SM VCSH SCT030 BKN050
     FM030500 14009KT P6SM VCSH SCT030 BKN050=



000
FTPA31 PHFO 020500
TAFHNL
TAF
PHNL 020529Z 0206/0312 VRB06KT P6SM VCSH FEW030 SCT050
      TEMPO 0206/0208 32012G18KT
     FM022200 20009KT P6SM VCSH SCT030 BKN050
     FM030500 14009KT P6SM VCSH SCT030 BKN050=



000
FTPA31 PHFO 020500
TAFHNL
TAF
PHNL 020529Z 0206/0312 VRB06KT P6SM VCSH FEW030 SCT050
      TEMPO 0206/0208 32012G18KT
     FM022200 20009KT P6SM VCSH SCT030 BKN050
     FM030500 14009KT P6SM VCSH SCT030 BKN050=



000
FTPA31 PHFO 020500
TAFHNL
TAF
PHNL 020529Z 0206/0312 VRB06KT P6SM VCSH FEW030 SCT050
      TEMPO 0206/0208 32012G18KT
     FM022200 20009KT P6SM VCSH SCT030 BKN050
     FM030500 14009KT P6SM VCSH SCT030 BKN050=



000
FTPA31 PHFO 020500
TAFHNL
TAF
PHNL 020529Z 0206/0312 VRB06KT P6SM VCSH FEW030 SCT050
      TEMPO 0206/0208 32012G18KT
     FM022200 20009KT P6SM VCSH SCT030 BKN050
     FM030500 14009KT P6SM VCSH SCT030 BKN050=



000
FTPA31 PHFO 020300 AAA
TAFHNL
TAF AMD
PHNL 020300Z 0203/0306 32012KT P6SM VCSH SCT030 SCT045 BKN060
     FM020600 VRB06KT P6SM VCSH FEW025 BKN045
     FM022000 20010KT P6SM VCSH SCT025 BKN045
     FM030500 13008KT P6SM VCSH SCT025 BKN045=



000
FTPA31 PHFO 020300 AAA
TAFHNL
TAF AMD
PHNL 020300Z 0203/0306 32012KT P6SM VCSH SCT030 SCT045 BKN060
     FM020600 VRB06KT P6SM VCSH FEW025 BKN045
     FM022000 20010KT P6SM VCSH SCT025 BKN045
     FM030500 13008KT P6SM VCSH SCT025 BKN045=



000
FTPA31 PHFO 012300
TAFHNL
TAF
PHNL 012338Z 0200/0306 22011KT P6SM VCSH SCT030 SCT045 BKN060
      TEMPO 0200/0202 -RA
     FM020600 19005KT P6SM VCSH FEW025 SCT045
     FM022000 20010KT P6SM VCSH SCT025 BKN045
     FM030500 13008KT P6SM VCSH SCT025 BKN045=



000
FTPA31 PHFO 012300
TAFHNL
TAF
PHNL 012338Z 0200/0306 22011KT P6SM VCSH SCT030 SCT045 BKN060
      TEMPO 0200/0202 -RA
     FM020600 19005KT P6SM VCSH FEW025 SCT045
     FM022000 20010KT P6SM VCSH SCT025 BKN045
     FM030500 13008KT P6SM VCSH SCT025 BKN045=



000
FTPA31 PHFO 012000 AAA
TAFHNL
TAF AMD
PHNL 012006Z 0120/0224 01010KT P6SM VCSH FEW025 SCT035 SCT050
     FM012200 23008KT P6SM VCSH SCT025 BKN045
      TEMPO 0123/0202 -RA
     FM020500 35005KT P6SM FEW025 SCT045
     FM022000 20010KT P6SM VCSH SCT025 BKN045=



000
FTPA31 PHFO 011700 RRA
TAFHNL
TAF
PHNL 011742Z 0118/0224 34005KT P6SM FEW025 SCT035 SCT060
     FM012100 23010KT P6SM VCSH SCT025 BKN045
      TEMPO 0123/0202 -RA
     FM020500 35005KT P6SM FEW025 SCT045
     FM022000 20010KT P6SM VCSH SCT025 BKN045=



000
FTPA31 PHFO 011700 RRA
TAFHNL
TAF
PHNL 011742Z 0118/0224 34005KT P6SM FEW025 SCT035 SCT060
     FM012100 23010KT P6SM VCSH SCT025 BKN045
      TEMPO 0123/0202 -RA
     FM020500 35005KT P6SM FEW025 SCT045
     FM022000 20010KT P6SM VCSH SCT025 BKN045=



000
FTPA31 PHFO 011400 RRA
TAFHNL
TAF
PHNL 011431Z 0115/0218 34005KT P6SM SCT030 BKN050
     FM020000 34008KT P6SM FEW030 SCT050
     FM021500 VRB02KT P6SM FEW030 SCT050=



000
FTPA31 PHFO 011400 RRA
TAFHNL
TAF
PHNL 011431Z 0115/0218 34005KT P6SM SCT030 BKN050
     FM020000 34008KT P6SM FEW030 SCT050
     FM021500 VRB02KT P6SM FEW030 SCT050=



000
FTPA31 PHFO 011400 RRA
TAFHNL
TAF
PHNL 011431Z 0115/0218 34005KT P6SM SCT030 BKN050
     FM020000 34008KT P6SM FEW030 SCT050
     FM021500 VRB02KT P6SM FEW030 SCT050=



000
FTPA31 PHFO 011400 RRA
TAFHNL
TAF
PHNL 011431Z 0115/0218 34005KT P6SM SCT030 BKN050
     FM020000 34008KT P6SM FEW030 SCT050
     FM021500 VRB02KT P6SM FEW030 SCT050=



000
FTPA31 PHFO 011100
TAFHNL
TAF
PHNL 011122Z 0112/0218 34006KT P6SM SCT030 BKN050
     FM020000 34006KT P6SM FEW030 SCT050=



000
FTPA31 PHFO 011100
TAFHNL
TAF
PHNL 011122Z 0112/0218 34006KT P6SM SCT030 BKN050
     FM020000 34006KT P6SM FEW030 SCT050=



000
FTPA31 PHFO 010800 RRA
TAFHNL
TAF
PHNL 010836Z 0109/0212 34006KT P6SM VCSH SCT025 OVC040
     FM020300 VRB03KT P6SM FEW025 SCT040=



000
FTPA31 PHFO 010800 RRA
TAFHNL
TAF
PHNL 010836Z 0109/0212 34006KT P6SM VCSH SCT025 OVC040
     FM020300 VRB03KT P6SM FEW025 SCT040=



000
FTPA31 PHFO 010500
TAFHNL
TAF
PHNL 010538Z 0106/0212 03009KT P6SM VCSH FEW030 SCT050 BKN080
     FM011200 34006KT P6SM VCSH SCT025 OVC040
     FM020300 VRB03KT P6SM FEW025 SCT040=



000
FTPA31 PHFO 010500
TAFHNL
TAF
PHNL 010538Z 0106/0212 03009KT P6SM VCSH FEW030 SCT050 BKN080
     FM011200 34006KT P6SM VCSH SCT025 OVC040
     FM020300 VRB03KT P6SM FEW025 SCT040=



000
FTPA31 PHFO 010200 AAA
TAFHNL
TAF AMD
PHNL 010259Z 0103/0206 03010KT P6SM VCSH SCT030 BKN050 BKN080
     FM011200 34008KT P6SM VCSH SCT025 BKN040
     FM020500 VRB04KT P6SM FEW025 SCT040=



000
FTPA31 PHFO 010200 AAA
TAFHNL
TAF AMD
PHNL 010259Z 0103/0206 03010KT P6SM VCSH SCT030 BKN050 BKN080
     FM011200 34008KT P6SM VCSH SCT025 BKN040
     FM020500 VRB04KT P6SM FEW025 SCT040=



000
FTPA31 PHFO 010200 AAA
TAFHNL
TAF AMD
PHNL 010259Z 0103/0206 03010KT P6SM VCSH SCT030 BKN050 BKN080
     FM011200 34008KT P6SM VCSH SCT025 BKN040
     FM020500 VRB04KT P6SM FEW025 SCT040=



000
FTPA31 PHFO 010200 AAA
TAFHNL
TAF AMD
PHNL 010259Z 0103/0206 03010KT P6SM VCSH SCT030 BKN050 BKN080
     FM011200 34008KT P6SM VCSH SCT025 BKN040
     FM020500 VRB04KT P6SM FEW025 SCT040=



000
FTPA31 PHFO 312300
TAFHNL
TAF
PHNL 312336Z 0100/0206 04010G15KT P6SM VCSH SCT030 BKN050
     FM010600 VRB04KT P6SM SCT050
     FM012000 34008KT P6SM VCSH SCT025 BKN040
     FM020500 VRB04KT P6SM FEW025 SCT040=



000
FTPA31 PHFO 312300
TAFHNL
TAF
PHNL 312336Z 0100/0206 04010G15KT P6SM VCSH SCT030 BKN050
     FM010600 VRB04KT P6SM SCT050
     FM012000 34008KT P6SM VCSH SCT025 BKN040
     FM020500 VRB04KT P6SM FEW025 SCT040=



000
FTPA31 PHFO 312000 AAA
TAFHNL
TAF AMD
PHNL 312055Z 3121/0124 06008KT P6SM VCSH FEW025 SCT050
     FM010000 04012G16KT P6SM VCSH SCT030 BKN050
     FM010600 VRB04KT P6SM SCT050
     FM012000 35012G16KT P6SM VCSH SCT025 BKN040=



000
FTPA31 PHFO 312000 AAA
TAFHNL
TAF AMD
PHNL 312055Z 3121/0124 06008KT P6SM VCSH FEW025 SCT050
     FM010000 04012G16KT P6SM VCSH SCT030 BKN050
     FM010600 VRB04KT P6SM SCT050
     FM012000 35012G16KT P6SM VCSH SCT025 BKN040=



000
FTPA31 PHFO 311700
TAFHNL
TAF
PHNL 311739Z 3118/0124 02005KT P6SM VCSH FEW025 SCT050
     FM312000 04012G16KT P6SM VCSH SCT030 BKN050
     FM010600 VRB04KT P6SM SCT050
     FM012000 35012G16KT P6SM VCSH SCT025 BKN040=



000
FTPA31 PHFO 311700
TAFHNL
TAF
PHNL 311739Z 3118/0124 02005KT P6SM VCSH FEW025 SCT050
     FM312000 04012G16KT P6SM VCSH SCT030 BKN050
     FM010600 VRB04KT P6SM SCT050
     FM012000 35012G16KT P6SM VCSH SCT025 BKN040=



000
FTPA31 PHFO 311700
TAFHNL
TAF
PHNL 311739Z 3118/0124 02005KT P6SM VCSH FEW025 SCT050
     FM312000 04012G16KT P6SM VCSH SCT030 BKN050
     FM010600 VRB04KT P6SM SCT050
     FM012000 35012G16KT P6SM VCSH SCT025 BKN040=



000
FTPA31 PHFO 311700
TAFHNL
TAF
PHNL 311739Z 3118/0124 02005KT P6SM VCSH FEW025 SCT050
     FM312000 04012G16KT P6SM VCSH SCT030 BKN050
     FM010600 VRB04KT P6SM SCT050
     FM012000 35012G16KT P6SM VCSH SCT025 BKN040=



000
FTPA31 PHFO 311400 AAA
TAFHNL
TAF AMD
PHNL 311457Z 3115/0118 VRB03KT P6SM SCT050
     FM312000 04010KT P6SM SCT030 BKN050
     FM010600 VRB03KT P6SM SCT050=



000
FTPA31 PHFO 311400 AAA
TAFHNL
TAF AMD
PHNL 311457Z 3115/0118 VRB03KT P6SM SCT050
     FM312000 04010KT P6SM SCT030 BKN050
     FM010600 VRB03KT P6SM SCT050=



000
FTPA31 PHFO 311100
TAFHNL
TAF
PHNL 311123Z 3112/0118 VRB03KT P6SM SCT050
     FM312000 04010KT P6SM SCT030 BKN050
     FM010600 VRB03KT P6SM SCT050=



000
FTPA31 PHFO 311100
TAFHNL
TAF
PHNL 311123Z 3112/0118 VRB03KT P6SM SCT050
     FM312000 04010KT P6SM SCT030 BKN050
     FM010600 VRB03KT P6SM SCT050=



000
FTPA31 PHFO 311100
TAFHNL
TAF
PHNL 311123Z 3112/0118 VRB03KT P6SM SCT050
     FM312000 04010KT P6SM SCT030 BKN050
     FM010600 VRB03KT P6SM SCT050=



000
FTPA31 PHFO 311100
TAFHNL
TAF
PHNL 311123Z 3112/0118 VRB03KT P6SM SCT050
     FM312000 04010KT P6SM SCT030 BKN050
     FM010600 VRB03KT P6SM SCT050=



    US Dept of Commerce
    National Oceanic and Atmospheric Administration
    National Weather Service
    1325 East West Highway
    Silver Spring, MD 20910
    Page Author: NWS Internet Services Team
Disclaimer
Information Quality
Credits
Glossary
Privacy Policy
Freedom of Information Act (FOIA)
About Us
Career Opportunities